Time;durP1;ratioP1;P1;durP2;ratioP2;P2;SDS_P1;SDS_P2;PMS_P1;PMS_P2;Temp;Humidity;BMP_temperature;BMP_pressure;BME280_temperature;BME280_humidity;BME280_pressure;Samples;Min_cycle;Max_cycle;Signal;HPM_P1;HPM_P2
2023/03/15 00:01:27;;;;;;;3.30;1.10;;;;;;;18.65;39.40;101138.84;5043946;28;20405;-71
2023/03/15 00:03:55;;;;;;;5.30;1.27;;;;;;;18.64;38.98;101140.66;5043603;28;20059;-67
2023/03/15 00:06:20;;;;;;;2.97;1.00;;;;;;;18.65;39.37;101133.56;5043364;28;20067;-69
2023/03/15 00:08:46;;;;;;;2.65;0.90;;;;;;;18.65;39.10;101131.78;5031721;28;20390;-68
2023/03/15 00:11:13;;;;;;;1.77;0.75;;;;;;;18.62;39.05;101132.00;5036623;28;20116;-68
2023/03/15 00:13:38;;;;;;;3.75;1.13;;;;;;;18.61;39.08;101125.06;5043400;28;20135;-71
2023/03/15 00:16:04;;;;;;;3.08;0.90;;;;;;;18.60;38.88;101130.47;5034026;28;20112;-69
2023/03/15 00:18:29;;;;;;;2.90;1.00;;;;;;;18.57;38.89;101126.25;5026023;28;20057;-71
2023/03/15 00:20:55;;;;;;;2.53;1.02;;;;;;;18.58;38.98;101135.88;5024140;28;20100;-67
2023/03/15 00:23:20;;;;;;;2.75;0.90;;;;;;;18.57;38.76;101128.91;5037204;28;20037;-67
2023/03/15 00:25:47;;;;;;;3.25;1.05;;;;;;;18.56;39.00;101134.28;5023580;28;20473;-70
2023/03/15 00:28:13;;;;;;;2.92;0.85;;;;;;;18.55;38.83;101141.38;5040952;28;20477;-69
2023/03/15 00:30:39;;;;;;;2.58;1.00;;;;;;;18.57;38.74;101149.19;5031836;28;20048;-72
2023/03/15 00:33:06;;;;;;;3.20;1.00;;;;;;;18.53;38.62;101145.91;5041958;28;20041;-69
2023/03/15 00:35:36;;;;;;;5.35;1.05;;;;;;;18.55;38.68;101151.09;5035162;28;20049;-68
2023/03/15 00:38:03;;;;;;;3.85;0.90;;;;;;;18.54;38.41;101152.91;5038969;28;20856;-69
2023/03/15 00:40:28;;;;;;;3.17;1.00;;;;;;;18.52;38.63;101140.75;5043094;28;20069;-69
2023/03/15 00:42:56;;;;;;;2.28;0.80;;;;;;;18.51;38.69;101145.22;5042274;28;20131;-69
2023/03/15 00:45:21;;;;;;;1.77;0.70;;;;;;;18.51;38.49;101149.66;5040441;28;20037;-71
2023/03/15 00:47:51;;;;;;;2.60;1.00;;;;;;;18.50;38.65;101151.47;5038895;28;20056;-68
2023/03/15 00:50:17;;;;;;;2.92;1.00;;;;;;;18.48;38.80;101151.59;5030146;28;20049;-68
2023/03/15 00:52:42;;;;;;;2.60;0.70;;;;;;;18.49;38.69;101150.59;5027978;28;20140;-69
2023/03/15 00:55:12;;;;;;;2.67;1.02;;;;;;;18.47;38.67;101139.34;5042937;28;20036;-70
2023/03/15 00:57:41;;;;;;;2.08;0.80;;;;;;;18.49;38.68;101141.88;5039280;28;20033;-68
2023/03/15 01:00:10;;;;;;;1.83;0.80;;;;;;;18.49;38.49;101136.59;5022959;28;20033;-67
2023/03/15 01:02:36;;;;;;;2.83;0.80;;;;;;;18.47;38.52;101135.88;5030008;28;20060;-69
2023/03/15 01:05:05;;;;;;;2.78;0.88;;;;;;;18.46;38.33;101142.09;5029718;28;20347;-68
2023/03/15 01:07:32;;;;;;;3.30;0.90;;;;;;;18.47;38.49;101147.25;5030716;28;20032;-68
2023/03/15 01:09:58;;;;;;;2.05;0.77;;;;;;;18.46;38.38;101142.09;5041488;28;20040;-69
2023/03/15 01:12:23;;;;;;;2.90;0.90;;;;;;;18.46;38.37;101150.84;5023180;28;20021;-69
2023/03/15 01:14:48;;;;;;;2.90;0.70;;;;;;;18.47;38.25;101162.25;5042082;28;20106;-69
2023/03/15 01:17:13;;;;;;;2.23;0.80;;;;;;;18.45;38.10;101148.31;5039768;28;20033;-66
2023/03/15 01:19:39;;;;;;;2.38;0.90;;;;;;;18.46;38.08;101161.41;5034922;28;20896;-68
2023/03/15 01:22:04;;;;;;;2.35;0.90;;;;;;;18.43;38.10;101156.34;5022316;28;20052;-68
2023/03/15 01:24:29;;;;;;;3.45;1.02;;;;;;;18.42;38.21;101159.97;5035556;28;20665;-72
2023/03/15 01:26:54;;;;;;;3.28;1.27;;;;;;;18.42;38.06;101159.97;5040723;28;20037;-72
2023/03/15 01:29:20;;;;;;;3.55;1.20;;;;;;;18.42;38.00;101170.53;5031757;28;20071;-69
2023/03/15 01:31:45;;;;;;;3.03;1.05;;;;;;;18.42;37.85;101167.91;5035656;28;20025;-70
2023/03/15 01:34:10;;;;;;;3.72;1.20;;;;;;;18.40;37.87;101171.59;5042980;28;20083;-66
2023/03/15 01:36:36;;;;;;;3.15;1.20;;;;;;;18.40;37.85;101179.50;5040592;28;20059;-68
2023/03/15 01:39:01;;;;;;;2.90;1.20;;;;;;;18.36;37.84;101176.28;5032113;28;20485;-68
2023/03/15 01:41:26;;;;;;;3.95;1.30;;;;;;;18.36;38.07;101173.66;5036829;28;20344;-68
2023/03/15 01:43:52;;;;;;;3.75;1.30;;;;;;;18.37;37.89;101183.22;5022196;28;20083;-71
2023/03/15 01:46:33;;;;;;;3.22;1.42;;;;;;;18.33;37.64;101179.16;5029451;28;20037;-69
2023/03/15 01:49:14;;;;;;;4.65;1.38;;;;;;;18.33;37.85;101176.50;5027008;28;20122;-70
2023/03/15 01:52:04;;;;;;;4.43;1.50;;;;;;;18.35;37.63;101181.69;5032959;28;20144;-68
2023/03/15 01:54:31;;;;;;;3.22;1.20;;;;;;;18.35;37.86;101174.59;5028683;28;20072;-69
2023/03/15 01:57:07;;;;;;;3.35;1.17;;;;;;;18.34;37.57;101186.13;5041563;28;20048;-68
2023/03/15 01:59:37;;;;;;;3.58;1.30;;;;;;;18.33;37.65;101180.97;5031589;28;20105;-68
2023/03/15 02:02:04;;;;;;;3.22;1.27;;;;;;;18.30;37.37;101192.56;5027614;28;20124;-68
2023/03/15 02:04:45;;;;;;;3.30;1.50;;;;;;;18.29;37.63;101191.75;5035594;28;20028;-68
2023/03/15 02:07:12;;;;;;;3.53;1.33;;;;;;;18.30;37.58;101196.06;5034185;28;20112;-72
2023/03/15 02:09:46;;;;;;;3.58;1.40;;;;;;;18.30;37.63;101201.31;5032278;28;20030;-72
2023/03/15 02:12:11;;;;;;;3.17;1.27;;;;;;;18.30;37.48;101211.03;5022985;28;20363;-71
2023/03/15 02:14:38;;;;;;;4.43;1.50;;;;;;;18.20;37.70;101207.41;5031811;28;20037;-69
2023/03/15 02:17:03;;;;;;;3.42;1.35;;;;;;;18.26;37.60;101222.78;5038554;28;20033;-68
2023/03/15 02:19:59;;;;;;;3.42;1.40;;;;;;;18.27;37.51;101216.56;5029273;28;20045;-69
2023/03/15 02:22:39;;;;;;;4.65;1.60;;;;;;;18.27;37.45;101216.56;5025807;28;20064;-69
2023/03/15 02:25:39;;;;;;;4.40;1.60;;;;;;;18.23;37.37;101210.69;5034452;28;20029;-68
2023/03/15 02:28:08;;;;;;;2.63;1.30;;;;;;;18.24;37.44;101214.97;5026338;28;20050;-68
2023/03/15 02:30:34;;;;;;;3.97;1.70;;;;;;;18.22;37.22;101213.44;5030701;28;20032;-67
2023/03/15 02:33:04;;;;;;;2.75;1.48;;;;;;;18.23;37.46;101215.09;5032546;28;20435;-68
2023/03/15 02:35:31;;;;;;;3.28;1.38;;;;;;;18.20;37.43;101218.81;5025917;28;20482;-70
2023/03/15 02:37:57;;;;;;;3.03;1.30;;;;;;;18.22;37.21;101229.25;5027871;28;20124;-71
2023/03/15 02:40:26;;;;;;;2.65;1.15;;;;;;;18.20;37.23;101221.47;5032976;28;20037;-69
2023/03/15 02:42:56;;;;;;;3.25;1.50;;;;;;;18.21;37.29;101230.22;5030472;28;20098;-71
2023/03/15 02:45:23;;;;;;;3.00;1.30;;;;;;;18.21;37.20;101228.41;5033402;28;20433;-68
2023/03/15 02:47:49;;;;;;;2.53;1.23;;;;;;;18.19;37.16;101225.03;5026109;28;20453;-70
2023/03/15 02:50:15;;;;;;;3.20;1.42;;;;;;;18.20;37.05;101232.00;5026495;28;20037;-67
2023/03/15 02:52:40;;;;;;;4.00;2.15;;;;;;;18.20;37.05;101236.44;5034254;28;20037;-68
2023/03/15 02:55:06;;;;;;;3.45;1.40;;;;;;;18.11;37.02;101230.06;5030661;28;20033;-70
2023/03/15 02:57:31;;;;;;;3.75;1.33;;;;;;;18.16;37.09;101233.19;5031133;28;20075;-69
2023/03/15 02:59:58;;;;;;;2.70;1.30;;;;;;;18.17;36.61;101237.53;5027392;28;20038;-68
2023/03/15 03:02:23;;;;;;;3.15;1.40;;;;;;;18.13;36.95;101239.56;5029944;28;20033;-72
2023/03/15 03:04:48;;;;;;;2.90;1.33;;;;;;;18.16;37.08;101249.00;5033164;28;20474;-69
2023/03/15 03:07:14;;;;;;;3.08;1.35;;;;;;;18.15;37.08;101257.91;5030098;28;20033;-68
2023/03/15 03:09:39;;;;;;;2.83;1.20;;;;;;;18.13;37.10;101260.66;5028478;28;20113;-71
2023/03/15 03:12:05;;;;;;;2.80;1.40;;;;;;;18.14;36.88;101266.75;5027497;28;20029;-70
2023/03/15 03:14:30;;;;;;;3.50;1.25;;;;;;;18.10;36.80;101267.94;5029377;28;20029;-69
2023/03/15 03:16:56;;;;;;;2.75;1.48;;;;;;;18.08;36.95;101273.31;5029987;28;20445;-69
2023/03/15 03:19:24;;;;;;;2.70;1.40;;;;;;;18.10;36.85;101279.34;5029911;28;20079;-69
2023/03/15 03:21:53;;;;;;;3.30;1.42;;;;;;;18.10;36.56;101281.13;5024144;28;20025;-69
2023/03/15 03:24:19;;;;;;;3.17;1.40;;;;;;;18.10;37.06;101289.03;5027237;28;20037;-68
2023/03/15 03:26:47;;;;;;;2.38;1.10;;;;;;;18.08;36.93;101293.59;5027787;28;20037;-69
2023/03/15 03:29:15;;;;;;;2.40;1.30;;;;;;;18.06;36.91;101293.72;5031217;28;20036;-67
2023/03/15 03:31:42;;;;;;;3.92;1.67;;;;;;;18.08;36.71;101297.06;5031427;28;20495;-69
2023/03/15 03:34:09;;;;;;;2.88;1.30;;;;;;;18.08;36.85;101290.97;5027950;28;20454;-73
2023/03/15 03:36:35;;;;;;;2.67;1.30;;;;;;;18.06;36.66;101296.34;5028659;28;20033;-71
2023/03/15 03:39:00;;;;;;;3.53;1.50;;;;;;;18.05;36.65;101294.66;5030625;28;20107;-68
2023/03/15 03:41:26;;;;;;;3.00;1.40;;;;;;;18.07;36.87;101313.88;5035380;28;20036;-68
2023/03/15 03:43:51;;;;;;;2.38;1.30;;;;;;;18.05;36.59;101312.28;5026352;28;20401;-67
2023/03/15 03:46:17;;;;;;;3.83;1.60;;;;;;;18.05;36.51;101321.03;5030660;28;20021;-68
2023/03/15 03:48:42;;;;;;;2.78;1.40;;;;;;;18.03;36.38;101312.38;5034783;28;20029;-68
2023/03/15 03:51:07;;;;;;;3.13;1.40;;;;;;;18.04;36.56;101323.78;5030908;28;20033;-69
2023/03/15 03:53:33;;;;;;;2.47;1.23;;;;;;;18.04;36.76;101319.38;5028230;28;20642;-68
2023/03/15 03:55:58;;;;;;;2.90;1.30;;;;;;;18.02;36.52;101321.25;5025599;28;20033;-68
2023/03/15 03:58:23;;;;;;;2.58;1.30;;;;;;;18.02;36.32;101323.88;5027755;28;20029;-72
2023/03/15 04:00:53;;;;;;;2.47;1.30;;;;;;;18.00;36.40;101319.69;5031717;28;20041;-71
2023/03/15 04:03:18;;;;;;;2.63;1.33;;;;;;;18.00;36.53;101328.44;5025304;28;20048;-68
2023/03/15 04:05:44;;;;;;;3.03;1.40;;;;;;;18.00;36.44;101335.53;5034985;28;20029;-67
2023/03/15 04:08:09;;;;;;;2.42;1.30;;;;;;;17.99;36.29;101337.31;5033544;28;20047;-68
2023/03/15 04:10:34;;;;;;;3.17;1.30;;;;;;;17.99;36.37;101339.97;5032040;28;20036;-68
2023/03/15 04:13:00;;;;;;;2.50;1.30;;;;;;;17.95;36.62;101341.97;5041417;28;20032;-70
2023/03/15 04:15:26;;;;;;;3.17;1.55;;;;;;;17.98;36.38;101346.19;5032539;28;20380;-68
2023/03/15 04:17:54;;;;;;;3.45;1.58;;;;;;;17.98;36.27;101356.72;5035868;28;20037;-68
2023/03/15 04:20:21;;;;;;;3.08;1.52;;;;;;;17.95;36.42;101352.50;5034909;28;20041;-67
2023/03/15 04:22:48;;;;;;;2.78;1.30;;;;;;;17.98;36.30;101369.91;5039442;28;20473;-68
2023/03/15 04:25:15;;;;;;;3.15;1.60;;;;;;;17.94;36.32;101371.06;5039256;28;20033;-69
2023/03/15 04:27:40;;;;;;;2.85;1.45;;;;;;;17.95;36.10;101378.88;5036103;28;20036;-69
2023/03/15 04:30:07;;;;;;;2.83;1.48;;;;;;;17.96;36.23;101371.81;5033138;28;20028;-72
2023/03/15 04:32:32;;;;;;;2.33;1.33;;;;;;;17.94;36.17;101379.00;5037082;28;20393;-69
2023/03/15 04:34:57;;;;;;;2.80;1.50;;;;;;;17.92;36.24;101379.09;5031626;28;20042;-72
2023/03/15 04:37:23;;;;;;;2.50;1.45;;;;;;;17.92;36.27;101384.38;5038280;28;20040;-69
2023/03/15 04:39:48;;;;;;;2.90;1.48;;;;;;;17.91;35.98;101384.47;5042797;28;20147;-70
2023/03/15 04:42:13;;;;;;;3.08;1.63;;;;;;;17.92;35.92;101392.28;5028328;28;20037;-70
2023/03/15 04:44:38;;;;;;;3.05;1.40;;;;;;;17.92;35.99;101392.28;5041941;28;20059;-68
2023/03/15 04:47:04;;;;;;;2.78;1.42;;;;;;;17.92;36.02;101399.34;5030294;28;20051;-68
2023/03/15 04:49:30;;;;;;;2.92;1.50;;;;;;;17.89;35.83;101395.13;5042436;28;20037;-67
2023/03/15 04:51:55;;;;;;;2.70;1.50;;;;;;;17.88;35.73;101401.38;5039696;28;20028;-67
2023/03/15 04:54:22;;;;;;;2.65;1.48;;;;;;;17.85;35.87;101396.28;5034882;28;20040;-69
2023/03/15 04:56:47;;;;;;;2.40;1.40;;;;;;;17.86;35.66;101397.13;5028305;28;20029;-69
2023/03/15 04:59:12;;;;;;;2.95;1.40;;;;;;;17.85;35.61;101401.56;5024095;28;20033;-68
2023/03/15 05:01:38;;;;;;;4.40;1.45;;;;;;;17.86;35.96;101410.31;5032657;28;20045;-68
2023/03/15 05:04:03;;;;;;;2.97;1.52;;;;;;;17.86;35.60;101405.03;5036286;28;20032;-72
2023/03/15 05:06:28;;;;;;;3.05;1.45;;;;;;;17.85;35.86;101404.19;5042359;28;20539;-70
2023/03/15 05:08:54;;;;;;;3.00;1.50;;;;;;;17.83;35.81;101411.38;5035588;28;20941;-69
2023/03/15 05:11:19;;;;;;;2.70;1.50;;;;;;;17.77;35.63;101404.75;5036443;28;20032;-68
2023/03/15 05:13:45;;;;;;;3.17;1.30;;;;;;;17.83;35.61;101416.66;5042112;28;20202;-67
2023/03/15 05:16:10;;;;;;;2.80;1.50;;;;;;;17.82;35.65;101420.25;5042005;28;20025;-68
2023/03/15 05:18:35;;;;;;;2.35;1.30;;;;;;;17.81;35.79;101420.34;5041746;28;20091;-69
2023/03/15 05:21:00;;;;;;;2.73;1.40;;;;;;;17.83;35.45;101424.56;5040272;28;20388;-68
2023/03/15 05:23:26;;;;;;;2.70;1.48;;;;;;;17.81;35.73;101425.63;5028954;28;20305;-71
2023/03/15 05:25:52;;;;;;;3.10;1.33;;;;;;;17.80;35.70;101434.47;5036403;28;20059;-69
2023/03/15 05:28:19;;;;;;;2.72;1.45;;;;;;;17.80;35.91;101437.09;5037447;28;20047;-66
2023/03/15 05:30:44;;;;;;;2.53;1.38;;;;;;;17.80;35.53;101440.59;5022515;28;20044;-67
2023/03/15 05:33:10;;;;;;;2.42;1.30;;;;;;;17.80;35.49;101443.25;5031589;28;20610;-69
2023/03/15 05:35:35;;;;;;;2.38;1.40;;;;;;;17.80;35.61;101445.00;5037413;28;20029;-70
2023/03/15 05:38:02;;;;;;;2.72;1.50;;;;;;;17.77;35.41;101441.66;5021496;28;20044;-69
2023/03/15 05:40:29;;;;;;;2.17;1.30;;;;;;;17.75;35.54;101447.97;5024413;28;20026;-69
2023/03/15 05:42:55;;;;;;;2.30;1.40;;;;;;;17.77;35.96;101449.56;5027412;28;20052;-70
2023/03/15 05:45:20;;;;;;;2.47;1.30;;;;;;;17.74;36.58;101443.66;5028306;28;20033;-67
2023/03/15 05:47:45;;;;;;;2.53;1.10;;;;;;;17.79;36.99;101456.53;5035383;28;20393;-69
2023/03/15 05:50:10;;;;;;;1.80;1.00;;;;;;;17.79;37.25;101454.72;5037743;28;20079;-69
2023/03/15 05:52:36;;;;;;;2.03;1.00;;;;;;;17.81;37.35;101458.09;5032778;28;20033;-70
2023/03/15 05:55:01;;;;;;;1.05;0.75;;;;;;;17.86;37.29;101458.59;5032451;28;20033;-70
2023/03/15 05:57:26;;;;;;;1.70;0.88;;;;;;;17.88;37.25;101456.75;5030028;28;20024;-69
2023/03/15 05:59:52;;;;;;;1.85;0.90;;;;;;;17.92;37.22;101465.28;5024144;28;20085;-71
2023/03/15 06:02:17;;;;;;;1.10;0.70;;;;;;;17.97;37.14;101470.25;5036894;28;20047;-68
2023/03/15 06:04:42;;;;;;;1.58;0.70;;;;;;;18.01;37.38;101480.47;5034472;28;20033;-69
2023/03/15 06:07:08;;;;;;;1.20;0.80;;;;;;;18.04;37.49;101485.53;5022604;28;20554;-69
2023/03/15 06:09:33;;;;;;;1.50;0.77;;;;;;;18.06;37.44;101488.88;5027869;28;20029;-69
2023/03/15 06:11:58;;;;;;;2.10;0.90;;;;;;;18.09;37.55;101493.94;5026640;28;20094;-72
2023/03/15 06:14:27;;;;;;;3.33;1.00;;;;;;;18.09;37.67;101491.31;5029132;28;20029;-68
2023/03/15 06:16:52;;;;;;;1.35;0.73;;;;;;;18.11;37.75;101494.66;5030557;28;20036;-68
2023/03/15 06:19:17;;;;;;;2.00;0.90;;;;;;;18.16;37.96;101488.25;5030295;28;20224;-68
2023/03/15 06:21:43;;;;;;;1.25;0.77;;;;;;;18.16;37.93;101494.34;5023202;28;20051;-68
2023/03/15 06:24:08;;;;;;;1.73;0.90;;;;;;;18.18;38.06;101505.63;5038281;28;20037;-68
2023/03/15 06:26:33;;;;;;;2.42;0.93;;;;;;;18.20;38.16;101514.28;5027029;28;21294;-68
2023/03/15 06:28:59;;;;;;;1.73;0.90;;;;;;;18.22;38.13;101528.22;5037197;28;20037;-68
2023/03/15 06:31:24;;;;;;;2.13;0.90;;;;;;;18.24;38.53;101530.75;5023114;28;21023;-70
2023/03/15 06:33:50;;;;;;;1.70;0.80;;;;;;;18.22;38.49;101527.38;5022012;28;20036;-66
2023/03/15 06:36:15;;;;;;;1.03;0.70;;;;;;;18.26;38.29;101536.75;5036598;28;20073;-67
2023/03/15 06:38:41;;;;;;;1.77;0.73;;;;;;;18.24;38.83;101550.03;5034901;28;20257;-67
2023/03/15 06:41:07;;;;;;;2.35;0.70;;;;;;;18.26;38.70;101550.81;5028682;28;20150;-69
2023/03/15 06:43:33;;;;;;;2.13;0.75;;;;;;;18.27;38.62;101549.84;5038450;28;20118;-70
2023/03/15 06:45:58;;;;;;;1.70;0.90;;;;;;;18.31;38.64;101561.03;5036461;28;20075;-67
2023/03/15 06:48:24;;;;;;;0.80;0.70;;;;;;;18.30;38.80;101548.78;5032563;28;20028;-68
2023/03/15 06:50:50;;;;;;;1.58;0.70;;;;;;;18.34;38.99;101565.22;5029046;28;20029;-69
2023/03/15 06:53:15;;;;;;;1.70;0.70;;;;;;;18.33;38.94;101560.94;5039908;28;20037;-69
2023/03/15 06:55:41;;;;;;;1.50;0.70;;;;;;;18.34;39.14;101566.09;5033344;28;20029;-68
2023/03/15 06:58:06;;;;;;;2.17;0.77;;;;;;;18.36;39.19;101573.88;5023945;28;20033;-68
2023/03/15 07:00:31;;;;;;;2.03;0.60;;;;;;;18.36;39.45;101569.47;5037768;28;20025;-68
2023/03/15 07:02:57;;;;;;;2.22;0.80;;;;;;;18.39;39.53;101578.94;5027352;28;20056;-71
2023/03/15 07:05:22;;;;;;;1.67;0.80;;;;;;;18.38;39.20;101579.91;5040321;28;20025;-68
2023/03/15 07:07:47;;;;;;;1.75;0.80;;;;;;;18.41;39.55;101585.81;5023658;28;20986;-68
2023/03/15 07:10:12;;;;;;;2.40;0.98;;;;;;;18.41;39.58;101588.44;5025510;28;20052;-69
2023/03/15 07:12:38;;;;;;;1.48;0.65;;;;;;;18.44;39.38;101590.03;5020189;28;20111;-70
2023/03/15 07:15:03;;;;;;;2.40;0.80;;;;;;;18.40;39.83;101585.91;5032218;28;20055;-69
2023/03/15 07:17:29;;;;;;;1.67;0.70;;;;;;;18.44;39.54;101593.50;5028262;28;20448;-70
2023/03/15 07:19:54;;;;;;;1.45;0.60;;;;;;;18.46;39.80;101606.59;5020120;28;20052;-69
2023/03/15 07:22:21;;;;;;;2.03;0.70;;;;;;;18.48;39.76;101609.97;5023056;28;20052;-68
2023/03/15 07:24:47;;;;;;;1.52;0.65;;;;;;;18.45;39.77;101608.41;5034237;28;20033;-71
2023/03/15 07:27:12;;;;;;;1.23;0.70;;;;;;;18.48;39.86;101615.25;5031552;28;20033;-68
2023/03/15 07:29:38;;;;;;;2.75;0.98;;;;;;;18.51;39.74;101622.13;5027407;28;20827;-70
2023/03/15 07:32:03;;;;;;;3.95;0.77;;;;;;;18.51;40.13;101630.03;5034633;28;20029;-67
2023/03/15 07:34:29;;;;;;;2.58;1.00;;;;;;;18.52;39.97;101624.66;5038388;28;20037;-71
2023/03/15 07:36:54;;;;;;;2.42;0.80;;;;;;;18.52;40.17;101632.56;5033904;28;20515;-71
2023/03/15 07:39:20;;;;;;;2.28;0.65;;;;;;;18.55;40.09;101640.28;5041286;28;20033;-70
2023/03/15 07:41:45;;;;;;;1.63;0.65;;;;;;;18.54;40.16;101641.22;5039875;28;20033;-68
2023/03/15 07:44:10;;;;;;;2.10;0.70;;;;;;;18.53;40.22;101636.88;5043662;28;20040;-68
2023/03/15 07:46:36;;;;;;;1.85;0.80;;;;;;;18.55;40.18;101644.69;5034928;28;20029;-68
2023/03/15 07:49:01;;;;;;;2.67;1.10;;;;;;;18.56;40.22;101649.03;5023971;28;20044;-68
2023/03/15 07:51:26;;;;;;;2.42;1.10;;;;;;;18.55;40.17;101653.47;5024285;28;20044;-70
2023/03/15 07:53:51;;;;;;;3.33;0.88;;;;;;;18.56;39.97;101652.50;5024090;28;20947;-68
2023/03/15 07:56:17;;;;;;;2.10;0.90;;;;;;;18.61;40.13;101670.66;5033765;28;20079;-67
2023/03/15 07:58:42;;;;;;;2.80;0.90;;;;;;;18.60;40.42;101669.00;5023549;28;20086;-66
2023/03/15 08:01:08;;;;;;;1.93;1.00;;;;;;;18.58;40.63;101673.50;5030703;28;20516;-67
2023/03/15 08:03:33;;;;;;;4.88;0.98;;;;;;;18.55;40.74;101669.31;5043593;28;20297;-70
2023/03/15 08:05:58;;;;;;;2.45;0.90;;;;;;;18.58;41.07;101682.28;5043469;28;20037;-68
2023/03/15 08:08:25;;;;;;;2.20;1.00;;;;;;;18.60;41.24;101682.19;5033590;28;20029;-68
2023/03/15 08:10:50;;;;;;;2.00;0.85;;;;;;;18.58;41.53;101687.56;5023680;28;20078;-67
2023/03/15 08:13:15;;;;;;;5.75;1.27;;;;;;;18.59;41.34;101691.03;5023695;28;20373;-69
2023/03/15 08:15:45;;;;;;;13.13;2.50;;;;;;;18.58;41.48;101695.50;5023278;28;20029;-69
2023/03/15 08:18:10;;;;;;;4.20;0.90;;;;;;;18.58;42.02;101695.50;5026852;28;20456;-69
2023/03/15 08:20:35;;;;;;;2.90;0.82;;;;;;;18.60;41.88;101701.50;5030412;28;20033;-68
2023/03/15 08:23:01;;;;;;;3.83;0.95;;;;;;;18.61;41.96;101700.56;5032580;28;20040;-69
2023/03/15 08:25:27;;;;;;;3.05;0.80;;;;;;;18.62;41.98;101699.59;5023903;28;20029;-69
2023/03/15 08:27:52;;;;;;;3.22;0.90;;;;;;;18.62;42.23;101702.22;5023675;28;20052;-67
2023/03/15 08:30:19;;;;;;;5.20;0.93;;;;;;;18.63;42.21;101709.22;5031099;28;20545;-68
2023/03/15 08:32:46;;;;;;;3.67;0.90;;;;;;;18.66;42.32;101716.91;5023249;28;20033;-72
2023/03/15 08:35:14;;;;;;;1.98;0.75;;;;;;;18.66;42.72;101716.91;5030018;28;20033;-69
2023/03/15 08:37:40;;;;;;;4.32;1.73;;;;;;;18.68;42.81;101722.09;5027123;28;20362;-69
2023/03/15 08:40:10;;;;;;;3.33;0.75;;;;;;;18.71;42.79;101724.53;5030689;28;20044;-68
2023/03/15 08:42:38;;;;;;;3.53;0.80;;;;;;;18.71;43.00;101721.88;5029736;28;20091;-69
2023/03/15 08:45:05;;;;;;;4.53;1.00;;;;;;;18.73;42.83;101735.81;5024493;28;20038;-70
2023/03/15 08:47:34;;;;;;;2.88;0.80;;;;;;;18.74;42.90;101739.28;5013066;28;20074;-68
2023/03/15 08:50:00;;;;;;;2.60;0.73;;;;;;;18.74;43.30;101741.94;5022416;28;20460;-69
2023/03/15 08:52:26;;;;;;;3.25;0.85;;;;;;;18.75;43.36;101739.19;5021468;28;20036;-68
2023/03/15 08:54:51;;;;;;;3.85;0.70;;;;;;;18.75;42.70;101736.53;5037863;28;20041;-72
2023/03/15 08:57:16;;;;;;;2.60;0.80;;;;;;;18.75;43.21;101738.34;5032525;28;20052;-68
2023/03/15 08:59:42;;;;;;;3.35;0.80;;;;;;;18.68;43.18;101732.66;5036805;28;20394;-71
2023/03/15 09:02:10;;;;;;;4.55;1.00;;;;;;;18.74;43.21;101742.78;5042321;28;20040;-68
2023/03/15 09:04:35;;;;;;;2.38;0.90;;;;;;;18.76;43.36;101751.44;5034554;28;20107;-69
2023/03/15 09:07:00;;;;;;;4.03;1.27;;;;;;;18.76;43.58;101754.09;5032474;28;20034;-68
2023/03/15 09:09:26;;;;;;;3.78;0.90;;;;;;;18.80;43.26;101752.94;5022526;28;20040;-69
2023/03/15 09:11:51;;;;;;;3.13;0.80;;;;;;;18.80;43.14;101749.41;5039440;28;20069;-70
2023/03/15 09:14:17;;;;;;;2.53;0.80;;;;;;;18.83;43.07;101751.84;5029956;28;20032;-69
2023/03/15 09:16:42;;;;;;;2.63;1.00;;;;;;;18.82;43.17;101755.47;5031811;28;20477;-68
2023/03/15 09:19:07;;;;;;;3.15;0.93;;;;;;;18.80;43.00;101760.84;5033699;28;20059;-68
2023/03/15 09:21:33;;;;;;;4.53;0.90;;;;;;;18.80;43.11;101755.56;5031074;28;20033;-69
2023/03/15 09:23:58;;;;;;;5.47;0.93;;;;;;;18.84;42.90;101756.22;5038475;28;20040;-66
2023/03/15 09:26:23;;;;;;;2.67;0.80;;;;;;;18.83;43.02;101751.84;5041613;28;20037;-67
2023/03/15 09:28:49;;;;;;;4.13;0.90;;;;;;;18.84;42.93;101757.06;5023706;28;20041;-70
2023/03/15 09:31:14;;;;;;;5.63;0.73;;;;;;;18.84;42.98;101762.34;5036539;28;20025;-68
2023/03/15 09:33:40;;;;;;;3.55;1.00;;;;;;;18.79;42.96;101759.16;5035744;28;20033;-67
2023/03/15 09:36:05;;;;;;;3.88;0.90;;;;;;;18.84;43.17;101764.97;5024984;28;20523;-68
2023/03/15 09:38:30;;;;;;;3.80;0.93;;;;;;;18.82;43.15;101752.81;5039743;28;20036;-68
2023/03/15 09:40:57;;;;;;;4.47;0.90;;;;;;;18.82;43.19;101753.66;5031157;28;20033;-68
2023/03/15 09:43:58;;;;;;;4.35;0.90;;;;;;;18.82;43.07;101758.94;5032313;28;20060;-71
2023/03/15 09:46:30;;;;;;;3.50;0.75;;;;;;;18.81;43.48;101756.41;5025754;28;20758;-69
2023/03/15 09:49:06;;;;;;;2.30;0.80;;;;;;;18.80;43.47;101760.00;5031778;28;20037;-68
2023/03/15 09:51:34;;;;;;;3.58;0.80;;;;;;;18.85;43.37;101765.84;5037998;28;20031;-68
2023/03/15 09:54:05;;;;;;;4.05;0.80;;;;;;;18.82;43.20;101752.81;5033657;28;20033;-69
2023/03/15 09:56:38;;;;;;;4.10;1.00;;;;;;;18.84;43.33;101759.69;5030328;28;20033;-68
2023/03/15 09:59:05;;;;;;;3.77;0.87;;;;;;;18.85;43.39;101768.50;5024735;28;20029;-66
2023/03/15 10:01:35;;;;;;;3.38;0.80;;;;;;;18.83;43.13;101767.69;5027929;28;20273;-70
2023/03/15 10:04:29;;;;;;;2.45;0.70;;;;;;;18.84;43.21;101766.78;5037106;28;20044;-67
2023/03/15 10:06:58;;;;;;;2.67;0.70;;;;;;;18.89;42.75;101763.84;5033616;28;20029;-65
2023/03/15 10:09:26;;;;;;;4.38;1.10;;;;;;;18.87;42.91;101776.28;5023299;28;20055;-70
2023/03/15 10:11:58;;;;;;;5.70;0.93;;;;;;;18.87;42.94;101763.94;5027092;28;20064;-68
2023/03/15 10:14:46;;;;;;;6.15;1.00;;;;;;;18.87;42.84;101761.28;5038539;28;20061;-69
2023/03/15 10:17:14;;;;;;;3.95;0.90;;;;;;;18.89;43.14;101763.84;5039899;28;20033;-68
2023/03/15 10:19:52;;;;;;;4.70;0.93;;;;;;;18.88;43.11;101762.13;5036902;28;20052;-68
2023/03/15 10:22:32;;;;;;;3.58;0.80;;;;;;;18.91;43.53;101772.47;5020838;28;20635;-69
2023/03/15 10:25:13;;;;;;;3.15;0.60;;;;;;;18.92;43.69;101776.81;5019386;28;20367;-67
2023/03/15 10:28:03;;;;;;;6.40;1.10;;;;;;;18.96;43.58;101767.72;5028828;28;20784;-69
2023/03/15 10:30:32;;;;;;;7.30;0.90;;;;;;;18.96;43.75;101763.31;5039833;28;20040;-69
2023/03/15 10:33:19;;;;;;;2.33;0.80;;;;;;;18.97;43.36;101766.78;5038576;28;20772;-69
2023/03/15 10:35:44;;;;;;;4.78;0.90;;;;;;;18.96;43.38;101773.00;5040573;28;20086;-65
2023/03/15 10:38:21;;;;;;;4.30;0.80;;;;;;;18.93;43.32;101771.44;5026207;28;20041;-68
2023/03/15 10:40:51;;;;;;;2.67;0.70;;;;;;;18.92;43.49;101777.66;5039402;28;20033;-68
2023/03/15 10:43:25;;;;;;;4.00;0.90;;;;;;;18.92;43.46;101774.19;5034094;28;20087;-67
2023/03/15 10:45:58;;;;;;;;;;;;;;;18.95;43.12;101776.63;5028135;28;20460;-69
2023/03/15 10:48:24;;;;;;;4.15;0.95;;;;;;;18.95;43.06;101789.81;5038555;28;19916;-68
2023/03/15 10:50:50;;;;;;;3.78;0.90;;;;;;;18.95;42.58;101795.94;5024231;28;20044;-68
2023/03/15 10:53:24;;;;;;;3.28;0.90;;;;;;;18.93;42.48;101791.69;5037124;28;20124;-68
2023/03/15 10:55:58;;;;;;;4.13;0.85;;;;;;;18.92;42.37;101792.66;5024541;28;21017;-68
2023/03/15 10:58:30;;;;;;;;;;;;;;;18.95;42.38;101798.56;5035084;28;20390;-68
2023/03/15 11:01:00;;;;;;;5.43;0.93;;;;;;;18.97;41.93;101798.47;5034596;28;20292;-68
2023/03/15 11:03:26;;;;;;;2.53;0.70;;;;;;;18.94;41.71;101801.31;5026070;28;20044;-67
2023/03/15 11:05:54;;;;;;;4.40;1.00;;;;;;;18.97;41.55;101809.03;5034482;28;20021;-66
2023/03/15 11:08:23;;;;;;;6.05;0.85;;;;;;;18.95;41.45;101808.31;5024020;28;20048;-70
2023/03/15 11:10:58;;;;;;;4.55;0.80;;;;;;;18.96;41.56;101802.06;5031515;28;20596;-70
2023/03/15 11:13:31;;;;;;;5.35;0.95;;;;;;;18.97;41.28;101807.22;5030600;28;20044;-68
2023/03/15 11:16:12;;;;;;;2.40;1.00;;;;;;;18.99;41.43;101809.75;5044708;28;20033;-68
2023/03/15 11:18:52;;;;;;;4.75;1.40;;;;;;;18.99;41.43;101813.28;5044136;28;20107;-68
2023/03/15 11:21:19;;;;;;;3.40;0.70;;;;;;;18.96;41.60;101809.97;5034950;28;20037;-69
2023/03/15 11:23:47;;;;;;;5.68;1.13;;;;;;;19.00;41.45;101819.41;5043601;28;20072;-67
2023/03/15 11:26:21;;;;;;;4.65;0.80;;;;;;;18.99;41.60;101822.97;5036598;28;20037;-67
2023/03/15 11:28:51;;;;;;;3.70;0.60;;;;;;;19.01;41.56;101831.66;5039275;28;20040;-68